Time;durP1;ratioP1;P1;durP2;ratioP2;P2;SDS_P1;SDS_P2;PMS_P1;PMS_P2;Temp;Humidity;BMP_temperature;BMP_pressure;BME280_temperature;BME280_humidity;BME280_pressure;Samples;Min_cycle;Max_cycle;Signal;HPM_P1;HPM_P2
2022/04/26 03:44:31;;;;;;;35.55;22.40;;;;;;;9.62;100.00;100048.38;21018455;28;20048;-68
2022/04/26 03:54:33;;;;;;;34.78;22.48;;;;;;;9.57;100.00;100055.44;21020936;28;20049;-69
2022/04/26 04:04:35;;;;;;;31.27;20.02;;;;;;;9.63;100.00;100052.69;21025096;28;20515;-69
2022/04/26 04:14:36;;;;;;;30.83;20.20;;;;;;;9.59;100.00;100053.66;21016035;28;20512;-69
2022/04/26 04:24:38;;;;;;;30.52;19.63;;;;;;;9.60;100.00;100056.25;21021060;28;20098;-69
2022/04/26 04:34:40;;;;;;;35.22;22.17;;;;;;;9.50;100.00;100071.22;21019510;28;20041;-69
2022/04/26 04:44:41;;;;;;;40.28;25.65;;;;;;;9.58;100.00;100078.94;21019383;28;20047;-69
2022/04/26 04:54:42;;;;;;;37.85;23.67;;;;;;;9.41;100.00;100091.41;21011208;28;20097;-69
2022/04/26 05:04:45;;;;;;;40.83;25.42;;;;;;;9.40;100.00;100100.16;21017682;28;20481;-69
2022/04/26 05:14:46;;;;;;;42.22;25.48;;;;;;;9.41;100.00;100105.34;21021946;28;20040;-70
2022/04/26 05:24:54;;;;;;;43.67;25.63;;;;;;;9.38;100.00;100118.44;21013706;28;20098;-69
2022/04/26 05:35:00;;;;;;;45.75;27.55;;;;;;;9.70;100.00;100119.69;21011201;28;20423;-69
2022/04/26 05:45:02;;;;;;;40.28;24.80;;;;;;;9.68;100.00;100117.13;21016073;28;20083;-69
2022/04/26 05:55:07;;;;;;;39.20;25.85;;;;;;;9.66;100.00;100112.78;21041008;28;20090;-70
2022/04/26 06:05:08;;;;;;;;;;;;;;;9.81;100.00;100122.97;21040725;28;20083;-70
2022/04/26 06:15:10;;;;;;;34.78;23.27;;;;;;;10.15;100.00;100114.53;21053265;28;19924;-70
2022/04/26 06:25:12;;;;;;;30.55;21.27;;;;;;;10.62;100.00;100124.13;21046242;28;20036;-70
2022/04/26 06:35:13;;;;;;;28.55;20.45;;;;;;;10.77;100.00;100122.94;21043728;28;20047;-68
2022/04/26 06:45:14;;;;;;;26.77;17.90;;;;;;;10.47;100.00;100130.53;21049328;28;20055;-67
2022/04/26 06:55:16;;;;;;;29.45;20.52;;;;;;;11.38;100.00;100132.06;21044605;28;20051;-68
2022/04/26 07:05:18;;;;;;;24.15;17.30;;;;;;;11.11;100.00;100137.91;21030071;28;20463;-68
2022/04/26 07:15:19;;;;;;;20.73;14.73;;;;;;;11.46;100.00;100135.38;21029228;28;20090;-67
2022/04/26 07:25:21;;;;;;;17.65;12.25;;;;;;;11.25;100.00;100141.09;21029454;28;20040;-68
2022/04/26 07:35:22;;;;;;;19.13;12.98;;;;;;;11.35;100.00;100137.38;21032945;28;20481;-67
2022/04/26 07:45:24;;;;;;;17.02;12.02;;;;;;;11.81;100.00;100152.88;21033687;28;20109;-66
2022/04/26 07:55:27;;;;;;;16.23;11.60;;;;;;;12.07;100.00;100148.75;21022480;28;20090;-68
2022/04/26 08:05:31;;;;;;;15.50;10.27;;;;;;;12.52;100.00;100156.31;21024634;28;21454;-64
2022/04/26 08:15:33;;;;;;;;;;;;;;;12.80;98.24;100161.66;21020948;28;20040;-64
2022/04/26 08:35:54;;;;;;;15.10;9.80;;;;;;;12.63;89.35;100172.63;21010810;28;20473;-64
2022/04/26 08:46:05;;;;;;;14.48;9.32;;;;;;;12.78;83.99;100184.47;21019096;28;20533;-67
2022/04/26 08:56:07;;;;;;;12.30;8.88;;;;;;;12.72;88.31;100210.94;21004765;28;20138;-66
2022/04/26 09:06:15;;;;;;;14.43;9.18;;;;;;;12.76;83.35;100213.44;21012206;28;20044;-66
2022/04/26 09:16:19;;;;;;;14.85;9.02;;;;;;;12.24;90.21;100245.44;21015448;28;20056;-67
2022/04/26 09:26:21;;;;;;;13.52;8.90;;;;;;;11.25;90.87;100266.91;21016732;28;20407;-67
2022/04/26 09:36:24;;;;;;;12.98;8.48;;;;;;;10.94;89.75;100269.28;21008885;28;20067;-66
2022/04/26 09:46:44;;;;;;;11.05;7.50;;;;;;;11.42;89.65;100272.66;21014274;28;20515;-66
2022/04/26 09:56:47;;;;;;;10.85;6.15;;;;;;;12.56;72.62;100257.75;21023374;28;20049;-67
2022/04/26 10:07:00;;;;;;;12.57;8.13;;;;;;;13.58;78.61;100247.00;21034972;28;20510;-67
2022/04/26 10:17:02;;;;;;;14.50;8.55;;;;;;;13.96;71.01;100247.56;21025518;28;20048;-66
2022/04/26 10:27:16;;;;;;;10.75;6.90;;;;;;;14.08;76.05;100249.81;21016471;28;20481;-67
2022/04/26 10:37:18;;;;;;;10.83;7.57;;;;;;;13.00;83.28;100295.13;21018773;28;20044;-67
2022/04/26 10:47:24;;;;;;;13.23;8.00;;;;;;;9.10;98.78;100346.97;21033190;28;20037;-68
2022/04/26 10:57:31;;;;;;;14.93;8.27;;;;;;;8.35;100.00;100366.75;21021377;28;20052;-69
2022/04/26 11:07:33;;;;;;;12.95;7.50;;;;;;;8.33;100.00;100365.00;21026518;28;20049;-70
2022/04/26 11:17:35;;;;;;;14.20;7.80;;;;;;;8.35;100.00;100376.31;21030827;28;20055;-69
2022/04/26 11:38:08;;;;;;;8.30;4.40;;;;;;;9.21;98.47;100361.66;21019098;28;20046;-69
2022/04/26 11:48:12;;;;;;;8.85;4.72;;;;;;;9.64;100.00;100361.16;21023748;28;20048;-68
2022/04/26 11:58:16;;;;;;;10.37;5.77;;;;;;;10.09;100.00;100386.72;21021188;28;20047;-67
2022/04/26 12:08:18;;;;;;;7.57;4.63;;;;;;;11.15;99.62;100386.75;21015814;28;20044;-67
2022/04/26 12:18:19;;;;;;;8.07;4.53;;;;;;;11.07;99.10;100403.50;21014404;28;20047;-67
2022/04/26 12:28:22;;;;;;;8.60;5.38;;;;;;;11.30;96.57;100390.84;21018155;28;20087;-67
2022/04/26 12:38:23;;;;;;;8.43;5.57;;;;;;;11.96;89.63;100382.56;21013280;28;20032;-66
2022/04/26 12:58:48;;;;;;;6.82;4.05;;;;;;;12.41;79.41;100400.81;21015380;28;20056;-67
2022/04/26 13:08:51;;;;;;;6.20;3.72;;;;;;;12.48;87.67;100410.25;21016610;28;20052;-66
2022/04/26 13:18:52;;;;;;;6.88;3.58;;;;;;;11.84;87.20;100411.69;21010726;28;20040;-67
2022/04/26 13:28:53;;;;;;;9.00;3.83;;;;;;;11.89;98.85;100422.09;21014976;28;20545;-67
2022/04/26 13:38:55;;;;;;;6.50;3.63;;;;;;;11.82;100.00;100413.47;21013319;28;20046;-66
2022/04/26 13:48:57;;;;;;;6.72;4.05;;;;;;;12.33;100.00;100418.50;21016785;28;20070;-66
2022/04/26 13:58:58;;;;;;;7.75;4.55;;;;;;;12.95;99.48;100410.03;21006036;28;20699;-66
2022/04/26 14:09:00;;;;;;;13.73;4.55;;;;;;;12.76;98.26;100417.50;21014739;28;20473;-65
2022/04/26 14:29:21;;;;;;;9.63;6.82;;;;;;;12.31;100.00;100442.19;21028194;28;20101;-67
2022/04/26 14:39:23;;;;;;;8.10;4.97;;;;;;;11.51;100.00;100469.13;21023365;28;20101;-66
2022/04/26 14:49:24;;;;;;;9.52;6.05;;;;;;;11.44;100.00;100461.38;21024420;28;20524;-69
2022/04/26 14:59:26;;;;;;;4.90;2.85;;;;;;;11.27;100.00;100461.69;21030325;28;20068;-66
2022/04/26 15:09:43;;;;;;;5.22;2.35;;;;;;;10.71;99.73;100479.19;21020693;28;21305;-66
2022/04/26 15:19:44;;;;;;;6.35;2.60;;;;;;;10.71;100.00;100492.28;21021639;28;20098;-66
2022/04/26 15:29:47;;;;;;;5.45;2.83;;;;;;;10.59;100.00;100484.59;21032761;28;20071;-68
2022/04/26 15:39:48;;;;;;;5.82;2.95;;;;;;;10.86;100.00;100478.97;21015923;28;20085;-69
2022/04/26 15:49:50;;;;;;;5.45;3.13;;;;;;;10.48;100.00;100493.47;21030361;28;20067;-67
2022/04/26 15:59:51;;;;;;;9.50;3.45;;;;;;;10.38;100.00;100507.59;21020942;28;20044;-67
2022/04/26 16:20:30;;;;;;;7.45;4.38;;;;;;;10.52;100.00;100508.25;21016106;28;20048;-68
2022/04/26 16:30:33;;;;;;;8.55;3.45;;;;;;;10.32;100.00;100533.84;21017888;28;20044;-66
2022/04/26 16:40:35;;;;;;;6.53;3.58;;;;;;;10.20;100.00;100524.34;21017483;28;20045;-67
2022/04/26 16:50:36;;;;;;;6.50;3.53;;;;;;;10.07;100.00;100524.53;21020593;28;20051;-67
2022/04/26 17:00:39;;;;;;;7.00;3.45;;;;;;;10.07;100.00;100532.38;21011815;28;20420;-68
2022/04/26 17:10:42;;;;;;;7.05;3.65;;;;;;;9.90;100.00;100527.31;21018240;28;20051;-67
2022/04/26 17:20:44;;;;;;;8.20;4.20;;;;;;;10.11;100.00;100526.19;21019504;28;20040;-67
2022/04/26 17:30:45;;;;;;;8.02;4.65;;;;;;;9.94;100.00;100555.19;21015934;28;20673;-67
2022/04/26 17:40:47;;;;;;;9.88;4.82;;;;;;;9.86;100.00;100557.88;21011226;28;20048;-68
2022/04/26 17:50:49;;;;;;;15.05;7.90;;;;;;;9.86;100.00;100570.06;21004082;28;20048;-67
2022/04/26 18:00:50;;;;;;;6.78;4.35;;;;;;;9.81;100.00;100574.50;20990072;28;20072;-66
2022/04/26 18:10:52;;;;;;;9.35;5.50;;;;;;;9.65;100.00;100592.06;20979619;28;20057;-67
2022/04/26 18:20:54;;;;;;;7.72;4.97;;;;;;;9.63;100.00;100614.75;20984736;28;20057;-68
2022/04/26 18:30:56;;;;;;;7.57;4.60;;;;;;;9.36;100.00;100629.78;20986794;28;20803;-67
2022/04/26 18:40:58;;;;;;;6.55;3.75;;;;;;;9.31;100.00;100628.94;20989048;28;20728;-67
2022/04/26 18:50:59;;;;;;;6.82;3.85;;;;;;;9.28;100.00;100655.06;20984820;28;20040;-68
2022/04/26 19:01:02;;;;;;;7.57;3.90;;;;;;;9.07;100.00;100660.44;20983628;28;20086;-67
2022/04/26 19:21:24;;;;;;;5.85;3.50;;;;;;;8.97;100.00;100694.44;21002164;28;20048;-67
2022/04/26 19:31:26;;;;;;;6.35;3.08;;;;;;;8.95;100.00;100706.63;20997945;28;20048;-68
2022/04/26 19:41:27;;;;;;;5.63;3.42;;;;;;;8.86;100.00;100711.91;20997923;28;20052;-67
2022/04/26 19:51:30;;;;;;;8.40;3.88;;;;;;;8.82;100.00;100714.53;20999050;28;20053;-67
2022/04/26 20:01:32;;;;;;;8.23;3.92;;;;;;;8.82;100.00;100707.56;20992886;28;20094;-67
2022/04/26 20:11:53;;;;;;;6.25;3.50;;;;;;;8.80;100.00;100727.56;20992296;28;20048;-67
2022/04/26 20:21:55;;;;;;;6.55;3.85;;;;;;;8.75;100.00;100726.72;20995896;28;20044;-66
2022/04/26 20:31:56;;;;;;;9.15;5.75;;;;;;;8.63;100.00;100732.00;20988517;28;20425;-67
2022/04/26 20:41:58;;;;;;;11.20;5.95;;;;;;;8.62;100.00;100731.09;20988362;28;20044;-67
2022/04/26 20:52:00;;;;;;;9.73;5.95;;;;;;;8.61;100.00;100737.19;20987717;28;20056;-67
2022/04/26 21:02:02;;;;;;;11.73;7.10;;;;;;;8.57;100.00;100751.13;21026498;28;20047;-66
2022/04/26 21:12:04;;;;;;;12.20;7.88;;;;;;;8.56;100.00;100753.75;21061677;28;20048;-65
2022/04/26 21:22:05;;;;;;;14.35;8.10;;;;;;;8.61;100.00;100767.66;21060602;28;20408;-66
2022/04/26 21:32:07;;;;;;;11.93;7.60;;;;;;;8.54;100.00;100772.03;21060085;28;20488;-66
2022/04/26 21:42:09;;;;;;;12.25;7.35;;;;;;;8.52;100.00;100765.91;21060016;28;20048;-64
2022/04/26 21:52:10;;;;;;;10.25;5.90;;;;;;;8.52;100.00;100778.09;21058995;28;20458;-67
2022/04/26 22:02:12;;;;;;;11.60;6.97;;;;;;;8.45;100.00;100783.34;21057226;28;20051;-66
2022/04/26 22:12:13;;;;;;;10.68;6.28;;;;;;;8.42;100.00;100783.31;21066531;28;20093;-66
2022/04/26 22:22:15;;;;;;;9.25;6.03;;;;;;;8.27;100.00;100805.91;21066228;28;20074;-66
2022/04/26 22:32:16;;;;;;;11.02;6.85;;;;;;;8.28;100.00;100807.66;21065087;28;20048;-65
2022/04/26 22:42:18;;;;;;;12.07;7.15;;;;;;;8.31;100.00;100818.09;21080987;28;20114;-65
2022/04/26 22:52:19;;;;;;;13.77;8.20;;;;;;;8.21;100.00;100817.22;21080124;28;20117;-66
2022/04/26 23:02:21;;;;;;;15.07;8.65;;;;;;;8.17;100.00;100825.91;21079269;28;20105;-66
2022/04/26 23:12:22;;;;;;;15.98;8.88;;;;;;;8.03;100.00;100832.84;21078547;28;20396;-66
2022/04/26 23:22:24;;;;;;;17.25;10.45;;;;;;;8.12;100.00;100851.97;21078031;28;20101;-65
2022/04/26 23:32:25;;;;;;;17.38;11.43;;;;;;;8.16;100.00;100840.69;21076563;28;20546;-66
2022/04/26 23:42:27;;;;;;;17.95;11.90;;;;;;;8.06;100.00;100848.50;21076069;28;20047;-66
